KSANKNUC

Guest
Details From KSAN - San Diego Intl
To KNUC - San Clemente Island Nalf
Flight Number -
Tags generated
Created
Modified
Stats Distance 73 nm / 135 km
Max Altitude 3,700 ft / 1,128 m
Waypoints 3
Social Downloads 9
Likes 0
Share VATSIM

Download

Looking for another format? Having issues loading an existing format? Contact us
Advertisement - Login to hide

Notes

Basic altitude profile: - Ascent Rate: 2500ft/min - Ascent Speed: 250kts - Cruise Altitude: 35000ft - Cruise Speed: 420kts - Descent Rate: 1500ft/min - Descent Speed: 250kts Options: - Use NATs: yes - Use PACOTS: yes - Use low airways: yes - Use high airways: yes

Route

KSAN SARGS KNUC

ID Type Via Altitude Latitude Longitude Leg Dist Tot Dist Heading (true) Name
O KSAN APT - 0 ft / 0 m 32.73356˚ -117.18966˚ - 0 nm - San Diego Intl
SARGS FIX - 3,700 ft / 1,128 m 32.78172˚ -117.38953˚ 10 nm 10 nm 286° / 286° -
O KNUC APT - 0 ft / 0 m 33.02274˚ -118.58849˚ 62 nm 72 nm 284° / 283° San Clemente Island Nalf

Altitude Profile

Advertisement - Login to hide

KSAN

Details ICAO KSAN (SAN)
Name San Diego Intl
Region United States
Timezone America/Los_Angeles (UTC-8.0)
Stats Elevation 17 ft / 5 m (AMSL)
Location 32.733556° -117.189658°
Runways 1
Magnetic Variation 11.525° E

METAR

KSAN 132151Z 23006KT 10SM FEW250 26/M13 A2995 RMK AO2 SLP142 T02561128

Decode

TAF

KSAN 132115Z 1321/1424 28006KT P6SM FEW250 FM140600 19005KT P6SM VCFG SCT008 FM141600 30007KT P6SM SKC

Decode

Departure Runways

ID Width Length Bearing (true) Bearing (mag) Surface Threshold Offset Overrun Length
09 200 ft / 61 m 9,387 ft / 2,861 m 106.07° 94.54° Asphalt 699 ft / 213 m 269 ft / 82 m
27 200 ft / 61 m 9,387 ft / 2,861 m 286.08° 274.55° Asphalt 1,811 ft / 552 m 0 ft / 0 m

KNUC

Details ICAO KNUC
Name San Clemente Island Nalf
Region United States
Timezone America/Los_Angeles (UTC-8.0)
Stats Elevation 182 ft / 55 m (AMSL)
Location 33.022745° -118.588487°
Runways 1
Magnetic Variation 11.861° E

METAR

KNUC 132156Z 22004KT 10SM FEW250 23/00 A2996 RMK SLP14 T02280000

Decode

TAF

TAF KNUC 1315/1415 27008KT 9999 SKC QNH2994INS FM140400 VRB05KT 9000 BR FEW250 QNH2996INS TEMPO 1409/1415 VRB05KT 3200 BR FEW250 T21/1321Z T13/1414Z FS30020

Decode

Destination Runways

ID Width Length Bearing (true) Bearing (mag) Surface Threshold Offset Overrun Length
05 200 ft / 61 m 9,290 ft / 2,832 m 67.19° 55.33° Concrete 0 ft / 0 m 0 ft / 0 m
23 200 ft / 61 m 9,290 ft / 2,832 m 247.20° 235.34° Concrete 0 ft / 0 m 0 ft / 0 m

Popular Alternatives